Time;durP1;ratioP1;P1;durP2;ratioP2;P2;SDS_P1;SDS_P2;PMS_P1;PMS_P2;Temp;Humidity;BMP_temperature;BMP_pressure;BME280_temperature;BME280_humidity;BME280_pressure;Samples;Min_cycle;Max_cycle;Signal;HPM_P1;HPM_P2
2022/04/28 00:00:34;;;;;;;0.20;0.20;;;;;;;;;;1844178;76;26325;-47
2022/04/28 00:03:02;;;;;;;0.10;0.10;;;;;;;;;;1838685;78;26291;-49
2022/04/28 00:05:29;;;;;;;0.10;0.10;;;;;;;;;;1838383;78;26208;-55
2022/04/28 00:07:56;;;;;;;0.20;0.20;;;;;;;;;;1841624;77;26274;-50
2022/04/28 00:10:24;;;;;;;0.10;0.10;;;;;;;;;;1843054;77;26286;-51
2022/04/28 00:12:52;;;;;;;0.10;0.10;;;;;;;;;;1842463;76;26297;-49
2022/04/28 00:15:19;;;;;;;0.10;0.10;;;;;;;;;;1842097;76;26288;-47
2022/04/28 00:17:46;;;;;;;0.28;0.28;;;;;;;;;;1871422;76;26288;-50
2022/04/28 00:20:13;;;;;;;0.17;0.17;;;;;;;;;;1871467;76;26196;-46
2022/04/28 00:22:41;;;;;;;0.15;0.15;;;;;;;;;;1870632;76;26247;-51
2022/04/28 00:25:08;;;;;;;0.10;0.10;;;;;;;;;;1842123;77;26315;-47
2022/04/28 00:27:36;;;;;;;0.65;0.20;;;;;;;;;;1842194;77;26282;-49
2022/04/28 00:30:04;;;;;;;0.28;0.28;;;;;;;;;;1836010;77;26414;-47
2022/04/28 00:32:31;;;;;;;1.17;0.20;;;;;;;;;;1840768;77;26859;-52
2022/04/28 00:34:59;;;;;;;0.20;0.20;;;;;;;;;;1847769;76;26674;-49
2022/04/28 00:37:26;;;;;;;0.10;0.10;;;;;;;;;;1877039;76;26695;-47
2022/04/28 00:39:53;;;;;;;0.20;0.20;;;;;;;;;;1877053;76;26688;-48
2022/04/28 00:42:20;;;;;;;0.10;0.10;;;;;;;;;;1877285;76;26269;-47
2022/04/28 00:44:48;;;;;;;0.20;0.20;;;;;;;;;;1876940;76;26328;-49
2022/04/28 00:47:15;;;;;;;0.10;0.10;;;;;;;;;;1842617;76;26331;-49
2022/04/28 00:52:29;;;;;;;0.13;0.13;;;;;;;;;;1837863;78;26353;-49
2022/04/28 00:54:57;;;;;;;0.10;0.10;;;;;;;;;;1840549;77;26274;-49
2022/04/28 00:57:25;;;;;;;0.10;0.10;;;;;;;;;;1850470;76;26275;-50
2022/04/28 00:59:52;;;;;;;0.28;0.20;;;;;;;;;;1850001;76;26262;-49
2022/04/28 01:02:20;;;;;;;0.15;0.15;;;;;;;;;;1836377;77;26293;-48
2022/04/28 01:04:48;;;;;;;0.42;0.20;;;;;;;;;;1812227;79;26293;-48
2022/04/28 01:07:16;;;;;;;0.20;0.20;;;;;;;;;;1817706;78;26270;-51
2022/04/28 01:09:44;;;;;;;0.10;0.10;;;;;;;;;;1864342;76;26315;-55
2022/04/28 01:12:14;;;;;;;0.10;0.10;;;;;;;;;;1877131;76;26352;-51
2022/04/28 01:14:44;;;;;;;0.17;0.17;;;;;;;;;;1877197;76;26290;-50
2022/04/28 01:17:12;;;;;;;0.17;0.10;;;;;;;;;;1812098;79;26566;-51
2022/04/28 01:19:40;;;;;;;0.20;0.20;;;;;;;;;;1824649;76;26316;-47
2022/04/28 01:22:07;;;;;;;0.17;0.17;;;;;;;;;;1842974;77;27683;-53
2022/04/28 01:24:36;;;;;;;0.20;0.20;;;;;;;;;;1832911;77;26250;-49
2022/04/28 01:27:05;;;;;;;0.10;0.10;;;;;;;;;;1843255;77;26310;-49
2022/04/28 01:29:33;;;;;;;0.10;0.10;;;;;;;;;;1843318;77;26853;-47
2022/04/28 01:32:01;;;;;;;0.20;0.20;;;;;;;;;;1842031;77;26316;-49
2022/04/28 01:34:28;;;;;;;0.20;0.20;;;;;;;;;;1838686;78;26274;-47
2022/04/28 01:36:56;;;;;;;0.20;0.20;;;;;;;;;;1833616;77;26261;-49
2022/04/28 01:39:23;;;;;;;0.20;0.20;;;;;;;;;;1842806;77;26285;-48
2022/04/28 01:41:51;;;;;;;0.20;0.20;;;;;;;;;;1842823;77;26286;-54
2022/04/28 01:44:18;;;;;;;0.20;0.20;;;;;;;;;;1871363;76;26267;-46
2022/04/28 01:46:46;;;;;;;0.10;0.10;;;;;;;;;;1871279;76;26267;-48
2022/04/28 01:49:13;;;;;;;0.20;0.20;;;;;;;;;;1871705;76;26369;-48
2022/04/28 01:57:11;;;;;;;0.30;0.30;;;;;;;;;;1811460;78;26296;-50
2022/04/28 01:59:39;;;;;;;0.10;0.10;;;;;;;;;;1833023;77;26202;-49
2022/04/28 02:02:06;;;;;;;0.20;0.20;;;;;;;;;;1844600;78;26257;-48
2022/04/28 02:04:33;;;;;;;0.20;0.20;;;;;;;;;;1844047;77;26219;-49
2022/04/28 02:07:01;;;;;;;0.20;0.20;;;;;;;;;;1843512;77;26761;-49
2022/04/28 02:09:28;;;;;;;0.20;0.20;;;;;;;;;;1843793;78;26286;-50
2022/04/28 02:11:55;;;;;;;0.03;0.03;;;;;;;;;;1837510;78;26273;-53
2022/04/28 02:14:23;;;;;;;0.20;0.20;;;;;;;;;;1818550;76;26578;-49
2022/04/28 02:16:50;;;;;;;0.15;0.15;;;;;;;;;;1855329;76;26262;-51
2022/04/28 02:19:18;;;;;;;0.10;0.10;;;;;;;;;;1844197;77;26262;-46
2022/04/28 02:21:45;;;;;;;0.20;0.20;;;;;;;;;;1841989;77;26748;-49
2022/04/28 02:24:13;;;;;;;0.13;0.13;;;;;;;;;;1842251;77;26323;-47
2022/04/28 02:26:40;;;;;;;0.82;0.20;;;;;;;;;;1858363;76;26243;-48
2022/04/28 02:29:08;;;;;;;0.20;0.20;;;;;;;;;;1821944;76;26281;-49
2022/04/28 02:31:35;;;;;;;0.30;0.30;;;;;;;;;;1813637;78;26292;-49
2022/04/28 02:34:02;;;;;;;0.10;0.10;;;;;;;;;;1838508;78;26699;-48
2022/04/28 02:36:29;;;;;;;0.15;0.15;;;;;;;;;;1838666;78;26717;-55
2022/04/28 02:38:57;;;;;;;0.25;0.20;;;;;;;;;;1872466;76;26769;-47
2022/04/28 02:41:24;;;;;;;0.20;0.20;;;;;;;;;;1877289;76;26248;-46
2022/04/28 02:43:52;;;;;;;0.25;0.25;;;;;;;;;;1856283;76;26345;-47
2022/04/28 02:46:19;;;;;;;0.15;0.15;;;;;;;;;;1860877;76;26320;-50
2022/04/28 02:48:47;;;;;;;0.13;0.13;;;;;;;;;;1872900;76;26269;-51
2022/04/28 02:51:15;;;;;;;0.20;0.20;;;;;;;;;;1877481;76;26397;-48
2022/04/28 02:53:42;;;;;;;0.30;0.30;;;;;;;;;;1877259;76;26783;-55
2022/04/28 02:56:10;;;;;;;0.20;0.20;;;;;;;;;;1877265;76;26670;-49
2022/04/28 02:58:37;;;;;;;0.20;0.20;;;;;;;;;;1868786;76;26312;-49
2022/04/28 03:01:04;;;;;;;0.10;0.10;;;;;;;;;;1828228;76;26347;-50
2022/04/28 03:03:32;;;;;;;0.10;0.10;;;;;;;;;;1813941;77;26276;-52
2022/04/28 03:11:30;;;;;;;0.10;0.10;;;;;;;;;;1854982;76;26648;-49
2022/04/28 03:13:58;;;;;;;0.30;0.30;;;;;;;;;;1871721;76;26247;-46
2022/04/28 03:16:25;;;;;;;0.28;0.17;;;;;;;;;;1843025;76;26309;-50
2022/04/28 03:18:53;;;;;;;0.10;0.10;;;;;;;;;;1840354;78;26630;-51
2022/04/28 03:21:20;;;;;;;0.10;0.10;;;;;;;;;;1844322;77;26864;-49
2022/04/28 03:23:48;;;;;;;0.10;0.10;;;;;;;;;;1866158;76;26329;-48
2022/04/28 03:26:15;;;;;;;0.28;0.28;;;;;;;;;;1871698;76;25766;-53
2022/04/28 03:28:43;;;;;;;0.20;0.20;;;;;;;;;;1860978;76;26720;-54
2022/04/28 03:31:10;;;;;;;0.20;0.20;;;;;;;;;;1843608;78;26347;-47
2022/04/28 03:33:38;;;;;;;0.17;0.17;;;;;;;;;;1843535;76;26263;-47
2022/04/28 03:36:50;;;;;;;0.80;0.60;;;;;;;;;;1871754;76;26766;-46
2022/04/28 03:38:34;;;;;;;0.30;0.30;;;;;;;;;;1868213;76;26368;-51
2022/04/28 03:41:02;;;;;;;0.28;0.28;;;;;;;;;;1862679;76;26254;-50
2022/04/28 03:43:29;;;;;;;0.10;0.10;;;;;;;;;;1844232;78;26226;-54
2022/04/28 03:45:56;;;;;;;0.20;0.20;;;;;;;;;;1852136;76;27210;-50
2022/04/28 03:48:24;;;;;;;0.10;0.10;;;;;;;;;;1844241;78;26323;-49
2022/04/28 03:50:51;;;;;;;0.30;0.30;;;;;;;;;;1835099;78;26320;-47
2022/04/28 03:53:18;;;;;;;0.10;0.10;;;;;;;;;;1837858;77;26246;-47
2022/04/28 03:55:45;;;;;;;0.30;0.30;;;;;;;;;;1811815;77;26264;-49
2022/04/28 03:58:13;;;;;;;0.20;0.20;;;;;;;;;;1840266;77;26325;-49
2022/04/28 04:00:41;;;;;;;0.23;0.23;;;;;;;;;;1838529;78;26285;-49
2022/04/28 04:03:09;;;;;;;0.20;0.20;;;;;;;;;;1838782;78;26246;-46
2022/04/28 04:05:36;;;;;;;0.10;0.10;;;;;;;;;;1838452;78;26262;-52
2022/04/28 04:08:03;;;;;;;0.10;0.10;;;;;;;;;;1833908;76;26282;-49
2022/04/28 04:10:30;;;;;;;0.82;0.20;;;;;;;;;;1840651;78;26675;-51
2022/04/28 04:12:58;;;;;;;0.20;0.20;;;;;;;;;;1840247;78;26701;-49
2022/04/28 04:15:25;;;;;;;0.10;0.10;;;;;;;;;;1850019;76;27519;-48
2022/04/28 04:17:52;;;;;;;0.17;0.17;;;;;;;;;;1871693;76;26738;-49
2022/04/28 04:20:20;;;;;;;0.20;0.20;;;;;;;;;;1850928;76;26246;-48
2022/04/28 04:22:47;;;;;;;0.20;0.20;;;;;;;;;;1839746;78;26292;-52
2022/04/28 04:25:14;;;;;;;0.10;0.10;;;;;;;;;;1837365;78;26270;-48
2022/04/28 04:27:41;;;;;;;0.20;0.20;;;;;;;;;;1836290;78;26235;-51
2022/04/28 04:32:54;;;;;;;0.20;0.20;;;;;;;;;;1839857;78;26279;-48
2022/04/28 04:35:23;;;;;;;0.30;0.30;;;;;;;;;;1835830;78;26242;-48
2022/04/28 04:37:52;;;;;;;0.20;0.20;;;;;;;;;;1839864;78;26371;-53
2022/04/28 04:40:19;;;;;;;0.10;0.10;;;;;;;;;;1838341;78;26238;-52
2022/04/28 04:42:47;;;;;;;0.20;0.20;;;;;;;;;;1836812;76;26309;-51
2022/04/28 04:45:14;;;;;;;0.20;0.20;;;;;;;;;;1841899;76;26223;-50
2022/04/28 04:47:41;;;;;;;0.40;0.30;;;;;;;;;;1839813;78;26238;-53
2022/04/28 04:50:09;;;;;;;0.30;0.30;;;;;;;;;;1840618;78;26262;-49
2022/04/28 04:52:36;;;;;;;0.20;0.20;;;;;;;;;;1849870;76;26759;-49
2022/04/28 04:55:04;;;;;;;0.13;0.13;;;;;;;;;;1870999;76;26700;-48
2022/04/28 04:57:32;;;;;;;0.20;0.20;;;;;;;;;;1839479;76;26330;-50
2022/04/28 05:00:00;;;;;;;0.20;0.20;;;;;;;;;;1839232;77;26898;-49
2022/04/28 05:02:27;;;;;;;0.30;0.30;;;;;;;;;;1838704;78;26254;-51
2022/04/28 05:04:55;;;;;;;0.30;0.30;;;;;;;;;;1844608;76;26768;-48
2022/04/28 05:07:22;;;;;;;0.30;0.30;;;;;;;;;;1822055;78;26689;-49
2022/04/28 05:09:49;;;;;;;0.30;0.30;;;;;;;;;;1840332;78;26950;-48
2022/04/28 05:12:16;;;;;;;0.20;0.20;;;;;;;;;;1833058;77;26799;-52
2022/04/28 05:14:45;;;;;;;0.20;0.20;;;;;;;;;;1840135;77;26398;-50
2022/04/28 05:17:13;;;;;;;0.20;0.20;;;;;;;;;;1840482;78;26800;-50
2022/04/28 05:19:40;;;;;;;0.20;0.20;;;;;;;;;;1840299;78;26703;-54
2022/04/28 05:22:07;;;;;;;0.45;0.20;;;;;;;;;;1837594;78;26691;-47
2022/04/28 05:24:35;;;;;;;1.17;0.40;;;;;;;;;;1805578;77;26300;-51
2022/04/28 05:27:02;;;;;;;0.80;0.30;;;;;;;;;;1842605;76;26259;-51
2022/04/28 05:29:30;;;;;;;0.30;0.30;;;;;;;;;;1842999;76;26856;-52
2022/04/28 05:31:57;;;;;;;0.55;0.40;;;;;;;;;;1840089;77;26826;-50
2022/04/28 05:34:24;;;;;;;0.25;0.25;;;;;;;;;;1823620;77;26739;-50
2022/04/28 05:36:51;;;;;;;1.98;0.28;;;;;;;;;;1795060;76;26216;-49
2022/04/28 05:39:19;;;;;;;0.37;0.37;;;;;;;;;;1858118;76;26206;-50
2022/04/28 05:41:46;;;;;;;1.32;0.30;;;;;;;;;;1823604;77;26288;-50
2022/04/28 05:46:59;;;;;;;0.53;0.30;;;;;;;;;;1843321;76;26386;-49
2022/04/28 05:49:27;;;;;;;0.35;0.30;;;;;;;;;;1857486;76;26292;-51
2022/04/28 05:51:54;;;;;;;1.10;0.42;;;;;;;;;;1871296;76;26382;-50
2022/04/28 05:54:21;;;;;;;0.85;0.40;;;;;;;;;;1867780;76;26303;-50
2022/04/28 05:56:48;;;;;;;1.62;0.30;;;;;;;;;;1856502;76;26675;-55
2022/04/28 05:59:16;;;;;;;0.33;0.33;;;;;;;;;;1860259;76;26668;-50
2022/04/28 06:01:44;;;;;;;2.45;0.28;;;;;;;;;;1854579;76;26281;-52
2022/04/28 06:04:11;;;;;;;0.68;0.35;;;;;;;;;;1843031;77;26250;-52
2022/04/28 06:06:39;;;;;;;0.47;0.40;;;;;;;;;;1829297;77;26249;-48
2022/04/28 06:09:06;;;;;;;0.40;0.40;;;;;;;;;;1816890;78;26355;-49
2022/04/28 06:11:34;;;;;;;0.30;0.30;;;;;;;;;;1836211;76;26345;-49
2022/04/28 06:14:01;;;;;;;0.55;0.30;;;;;;;;;;1871048;76;26317;-50
2022/04/28 06:16:29;;;;;;;0.82;0.40;;;;;;;;;;1870443;76;26299;-50
2022/04/28 06:18:56;;;;;;;0.37;0.33;;;;;;;;;;1839129;76;26344;-49
2022/04/28 06:21:23;;;;;;;0.78;0.30;;;;;;;;;;1844000;78;26269;-51
2022/04/28 06:23:51;;;;;;;0.90;0.33;;;;;;;;;;1834207;77;26326;-48
2022/04/28 06:26:18;;;;;;;0.23;0.23;;;;;;;;;;1812810;79;27559;-49
2022/04/28 06:28:46;;;;;;;0.53;0.42;;;;;;;;;;1812817;79;26359;-51
2022/04/28 06:31:13;;;;;;;1.35;0.40;;;;;;;;;;1823227;76;26306;-50
2022/04/28 06:33:41;;;;;;;0.30;0.30;;;;;;;;;;1840932;78;26245;-49
2022/04/28 06:36:08;;;;;;;0.85;0.40;;;;;;;;;;1825762;77;26772;-52
2022/04/28 06:38:35;;;;;;;1.05;0.37;;;;;;;;;;1832204;78;26519;-51
2022/04/28 06:41:03;;;;;;;0.30;0.30;;;;;;;;;;1831878;78;26343;-52
2022/04/28 06:43:32;;;;;;;0.30;0.30;;;;;;;;;;1838826;76;26218;-50
2022/04/28 06:46:15;;;;;;;0.75;0.53;;;;;;;;;;1858654;76;26895;-54
2022/04/28 06:48:42;;;;;;;0.47;0.40;;;;;;;;;;1872094;76;26263;-47
2022/04/28 06:51:10;;;;;;;0.53;0.42;;;;;;;;;;1845023;76;26742;-46
2022/04/28 06:53:38;;;;;;;0.62;0.50;;;;;;;;;;1845819;76;26761;-47
2022/04/28 06:56:09;;;;;;;0.47;0.47;;;;;;;;;;1871414;76;26340;-49
2022/04/28 06:58:37;;;;;;;1.17;0.50;;;;;;;;;;1864552;76;26274;-49
2022/04/28 07:01:06;;;;;;;0.30;0.30;;;;;;;;;;1841373;77;26356;-48
2022/04/28 07:03:34;;;;;;;0.40;0.40;;;;;;;;;;1841021;77;26773;-48
2022/04/28 07:06:01;;;;;;;0.40;0.40;;;;;;;;;;1839531;76;26290;-49
2022/04/28 07:08:30;;;;;;;0.60;0.60;;;;;;;;;;1839793;77;26336;-47
2022/04/28 07:10:58;;;;;;;0.70;0.60;;;;;;;;;;1842690;77;26309;-49
2022/04/28 07:13:26;;;;;;;0.50;0.50;;;;;;;;;;1836363;77;26342;-50
2022/04/28 07:15:53;;;;;;;1.72;0.40;;;;;;;;;;1839673;76;26216;-52
2022/04/28 07:18:20;;;;;;;2.17;0.50;;;;;;;;;;1877110;76;26881;-50
2022/04/28 07:20:48;;;;;;;0.70;0.70;;;;;;;;;;1876734;76;26776;-49
2022/04/28 07:23:16;;;;;;;0.47;0.47;;;;;;;;;;1851017;76;27463;-50
2022/04/28 07:25:43;;;;;;;1.37;0.50;;;;;;;;;;1848457;76;26278;-55
2022/04/28 07:28:10;;;;;;;0.65;0.40;;;;;;;;;;1855852;76;26337;-53
2022/04/28 07:30:38;;;;;;;0.57;0.40;;;;;;;;;;1823746;76;26252;-51
2022/04/28 07:33:06;;;;;;;0.50;0.50;;;;;;;;;;1827257;78;26368;-47
2022/04/28 07:35:34;;;;;;;0.30;0.30;;;;;;;;;;1838722;78;26227;-47
2022/04/28 07:38:02;;;;;;;0.50;0.50;;;;;;;;;;1841594;77;26285;-47
2022/04/28 07:40:29;;;;;;;0.53;0.50;;;;;;;;;;1852368;76;26214;-49
2022/04/28 07:42:57;;;;;;;0.47;0.47;;;;;;;;;;1877166;76;26321;-48
2022/04/28 07:45:24;;;;;;;0.50;0.40;;;;;;;;;;1868476;76;26663;-49
2022/04/28 07:47:52;;;;;;;0.85;0.45;;;;;;;;;;1843102;78;26270;-50
2022/04/28 07:50:19;;;;;;;0.30;0.30;;;;;;;;;;1852833;76;26267;-47
2022/04/28 07:52:47;;;;;;;1.05;0.50;;;;;;;;;;1877203;76;26638;-52
2022/04/28 07:55:15;;;;;;;0.40;0.40;;;;;;;;;;1873186;76;26330;-49
2022/04/28 07:57:42;;;;;;;0.23;0.23;;;;;;;;;;1862765;76;26266;-51
2022/04/28 08:00:10;;;;;;;1.77;0.40;;;;;;;;;;1836225;78;27408;-46
2022/04/28 08:02:37;;;;;;;0.40;0.40;;;;;;;;;;1862507;76;26314;-50
2022/04/28 08:05:06;;;;;;;0.68;0.42;;;;;;;;;;1819210;76;26835;-47
2022/04/28 08:07:33;;;;;;;0.55;0.30;;;;;;;;;;1810220;79;26288;-48
2022/04/28 08:10:01;;;;;;;0.30;0.30;;;;;;;;;;1809674;79;26611;-53
2022/04/28 08:12:29;;;;;;;0.30;0.30;;;;;;;;;;1819043;76;26369;-49
2022/04/28 08:14:56;;;;;;;0.40;0.40;;;;;;;;;;1854301;76;26281;-48
2022/04/28 08:17:23;;;;;;;0.30;0.30;;;;;;;;;;1871783;76;26272;-50
2022/04/28 08:19:51;;;;;;;0.50;0.50;;;;;;;;;;1841207;76;26223;-50
2022/04/28 08:22:18;;;;;;;0.30;0.30;;;;;;;;;;1855712;76;26633;-52
2022/04/28 08:24:46;;;;;;;0.40;0.40;;;;;;;;;;1853332;76;26336;-48
2022/04/28 08:27:13;;;;;;;0.20;0.20;;;;;;;;;;1839852;78;26297;-52
2022/04/28 08:29:40;;;;;;;0.42;0.42;;;;;;;;;;1841084;78;26328;-51
2022/04/28 08:32:07;;;;;;;0.20;0.20;;;;;;;;;;1838886;77;26639;-52
2022/04/28 08:34:36;;;;;;;0.45;0.30;;;;;;;;;;1840060;76;26183;-49
2022/04/28 08:37:03;;;;;;;0.37;0.30;;;;;;;;;;1839754;78;26258;-48
2022/04/28 08:39:30;;;;;;;0.20;0.20;;;;;;;;;;1845081;76;26220;-50
2022/04/28 08:42:00;;;;;;;0.15;0.15;;;;;;;;;;1839206;76;26364;-49
2022/04/28 08:44:29;;;;;;;0.20;0.20;;;;;;;;;;1839857;78;26348;-55
2022/04/28 08:46:58;;;;;;;0.47;0.40;;;;;;;;;;1836289;76;26778;-49
2022/04/28 08:49:27;;;;;;;0.30;0.30;;;;;;;;;;1836479;78;26253;-47
2022/04/28 08:51:56;;;;;;;0.20;0.20;;;;;;;;;;1835686;78;26238;-53
2022/04/28 08:54:24;;;;;;;0.20;0.20;;;;;;;;;;1837960;77;26312;-51
2022/04/28 08:56:52;;;;;;;0.20;0.20;;;;;;;;;;1842496;76;26703;-51
2022/04/28 08:59:21;;;;;;;0.20;0.20;;;;;;;;;;1852926;76;26319;-47
2022/04/28 09:01:50;;;;;;;0.13;0.13;;;;;;;;;;1842718;77;26281;-50
2022/04/28 09:04:18;;;;;;;0.30;0.25;;;;;;;;;;1839170;76;26294;-49
2022/04/28 09:06:47;;;;;;;0.30;0.30;;;;;;;;;;1842101;77;26607;-51
2022/04/28 09:09:16;;;;;;;0.10;0.10;;;;;;;;;;1852007;76;26272;-54
2022/04/28 09:11:44;;;;;;;0.23;0.23;;;;;;;;;;1870382;76;26550;-54
2022/04/28 09:14:14;;;;;;;0.20;0.20;;;;;;;;;;1870579;76;26333;-50
2022/04/28 09:16:48;;;;;;;0.40;0.40;;;;;;;;;;1871262;76;26346;-50
2022/04/28 09:19:25;;;;;;;0.20;0.15;;;;;;;;;;1873630;76;26570;-48
2022/04/28 09:21:50;;;;;;;0.20;0.20;;;;;;;;;;1836982;76;26289;-49
2022/04/28 09:24:18;;;;;;;0.30;0.30;;;;;;;;;;1842917;77;26777;-50
2022/04/28 09:26:47;;;;;;;0.30;0.30;;;;;;;;;;1842415;77;26258;-51
2022/04/28 09:29:15;;;;;;;0.30;0.30;;;;;;;;;;1843075;77;26280;-47
2022/04/28 09:31:44;;;;;;;0.20;0.20;;;;;;;;;;1843077;76;26294;-50
2022/04/28 09:34:12;;;;;;;0.20;0.20;;;;;;;;;;1838747;78;27233;-51
2022/04/28 09:36:41;;;;;;;0.20;0.20;;;;;;;;;;1838772;76;26976;-54
2022/04/28 09:39:10;;;;;;;0.30;0.30;;;;;;;;;;1834840;77;26260;-50
2022/04/28 09:44:24;;;;;;;0.20;0.20;;;;;;;;;;1832282;76;26403;-51
2022/04/28 09:46:52;;;;;;;0.20;0.20;;;;;;;;;;1839040;76;26418;-50
2022/04/28 09:49:20;;;;;;;0.20;0.20;;;;;;;;;;1842945;77;26297;-50
2022/04/28 09:51:48;;;;;;;0.30;0.30;;;;;;;;;;1842900;77;26270;-48
2022/04/28 09:54:17;;;;;;;0.15;0.15;;;;;;;;;;1842996;76;26281;-50
2022/04/28 09:56:45;;;;;;;0.30;0.30;;;;;;;;;;1834123;77;26309;-53
2022/04/28 09:59:13;;;;;;;0.10;0.10;;;;;;;;;;1839212;78;26597;-55
2022/04/28 10:01:41;;;;;;;0.10;0.10;;;;;;;;;;1848333;76;26777;-52
2022/04/28 10:04:09;;;;;;;0.20;0.20;;;;;;;;;;1864444;76;26336;-47
2022/04/28 10:06:38;;;;;;;0.15;0.15;;;;;;;;;;1852760;76;26263;-50
2022/04/28 10:09:09;;;;;;;0.17;0.17;;;;;;;;;;1870654;76;26255;-52
2022/04/28 10:11:37;;;;;;;0.20;0.20;;;;;;;;;;1871311;76;26735;-50
2022/04/28 10:14:06;;;;;;;0.17;0.17;;;;;;;;;;1846975;76;26804;-50
2022/04/28 10:16:35;;;;;;;0.20;0.20;;;;;;;;;;1863732;76;26345;-53
2022/04/28 10:19:16;;;;;;;0.20;0.20;;;;;;;;;;1866254;76;26682;-47
2022/04/28 10:22:02;;;;;;;0.28;0.28;;;;;;;;;;1839569;78;26283;-52
2022/04/28 10:32:55;;;;;;;0.20;0.20;;;;;;;;;;1829603;76;26288;-49
2022/04/28 10:35:36;;;;;;;0.20;0.20;;;;;;;;;;1811351;78;26304;-49
2022/04/28 10:38:08;;;;;;;0.20;0.20;;;;;;;;;;1809868;79;26343;-50
2022/04/28 10:40:40;;;;;;;0.25;0.25;;;;;;;;;;1810012;79;26269;-49
2022/04/28 10:43:24;;;;;;;0.65;0.20;;;;;;;;;;1793344;79;26768;-48
2022/04/28 10:45:52;;;;;;;0.23;0.23;;;;;;;;;;1809963;78;26260;-48
2022/04/28 10:48:24;;;;;;;0.20;0.20;;;;;;;;;;1831702;78;26788;-50
2022/04/28 10:51:15;;;;;;;0.20;0.20;;;;;;;;;;1837874;76;26269;-50
2022/04/28 10:53:57;;;;;;;0.20;0.20;;;;;;;;;;1837055;78;26248;-49
2022/04/28 10:56:24;;;;;;;0.23;0.23;;;;;;;;;;1840829;77;26501;-47
2022/04/28 10:58:52;;;;;;;0.10;0.10;;;;;;;;;;1842421;77;26199;-51
2022/04/28 11:01:27;;;;;;;0.10;0.10;;;;;;;;;;1839583;77;26281;-49
2022/04/28 11:03:59;;;;;;;0.20;0.20;;;;;;;;;;1818461;78;26229;-49
2022/04/28 11:06:30;;;;;;;0.20;0.20;;;;;;;;;;1811040;78;26311;-48
2022/04/28 11:08:59;;;;;;;0.20;0.20;;;;;;;;;;1812034;79;26276;-51
2022/04/28 11:11:32;;;;;;;0.20;0.20;;;;;;;;;;1812309;79;26253;-48
2022/04/28 11:13:58;;;;;;;0.13;0.13;;;;;;;;;;1836044;77;26304;-52
2022/04/28 11:16:26;;;;;;;0.10;0.10;;;;;;;;;;1816231;78;26230;-50
2022/04/28 11:18:54;;;;;;;0.15;0.15;;;;;;;;;;1862780;76;26245;-50
2022/04/28 11:21:22;;;;;;;0.13;0.13;;;;;;;;;;1812959;78;26228;-52
2022/04/28 11:23:51;;;;;;;0.30;0.30;;;;;;;;;;1827128;76;26735;-48
2022/04/28 11:26:21;;;;;;;0.10;0.10;;;;;;;;;;1874490;76;26999;-49
2022/04/28 11:28:48;;;;;;;0.13;0.13;;;;;;;;;;1874640;76;26224;-49
2022/04/28 11:31:18;;;;;;;0.30;0.30;;;;;;;;;;1874605;76;26771;-50
2022/04/28 11:33:47;;;;;;;0.20;0.20;;;;;;;;;;1862601;76;27148;-53
2022/04/28 11:36:15;;;;;;;0.25;0.25;;;;;;;;;;1836574;76;26291;-50
2022/04/28 11:38:44;;;;;;;0.25;0.25;;;;;;;;;;1812074;78;26565;-48
2022/04/28 11:41:11;;;;;;;0.10;0.10;;;;;;;;;;1813607;78;26263;-50
2022/04/28 11:43:38;;;;;;;0.15;0.15;;;;;;;;;;1840780;78;26251;-47
2022/04/28 11:46:08;;;;;;;0.10;0.10;;;;;;;;;;1842568;76;26234;-50
2022/04/28 11:48:36;;;;;;;0.30;0.30;;;;;;;;;;1841066;76;26839;-50
2022/04/28 11:51:04;;;;;;;0.20;0.20;;;;;;;;;;1841941;77;26274;-51
2022/04/28 11:53:43;;;;;;;0.10;0.10;;;;;;;;;;1837672;78;26219;-47
2022/04/28 11:56:15;;;;;;;1.12;0.30;;;;;;;;;;1842690;77;26352;-51
2022/04/28 11:58:44;;;;;;;0.10;0.10;;;;;;;;;;1838666;76;26208;-50
2022/04/28 12:01:12;;;;;;;0.20;0.20;;;;;;;;;;1838640;78;26328;-47
2022/04/28 12:03:42;;;;;;;0.20;0.20;;;;;;;;;;1838598;78;26546;-49
2022/04/28 12:06:10;;;;;;;0.20;0.20;;;;;;;;;;1837869;78;26287;-53
2022/04/28 12:08:39;;;;;;;0.10;0.10;;;;;;;;;;1833609;78;26676;-50
2022/04/28 12:19:27;;;;;;;0.00;0.00;;;;;;;;;;1871636;76;26353;-50
2022/04/28 12:21:53;;;;;;;0.10;0.10;;;;;;;;;;1870667;76;26822;-50
2022/04/28 12:24:20;;;;;;;0.10;0.10;;;;;;;;;;1854307;76;26756;-49
2022/04/28 12:26:49;;;;;;;0.10;0.10;;;;;;;;;;1840074;78;26727;-51
2022/04/28 12:29:17;;;;;;;0.20;0.20;;;;;;;;;;1840198;78;26340;-49
2022/04/28 12:31:47;;;;;;;0.70;0.20;;;;;;;;;;1840216;76;26212;-53
2022/04/28 12:34:22;;;;;;;0.10;0.10;;;;;;;;;;1840297;78;26274;-49
2022/04/28 12:36:55;;;;;;;0.10;0.10;;;;;;;;;;1840218;78;26916;-49
2022/04/28 12:39:21;;;;;;;0.20;0.20;;;;;;;;;;1838794;78;26282;-52
2022/04/28 12:41:50;;;;;;;0.13;0.13;;;;;;;;;;1833674;78;26348;-52
2022/04/28 12:44:18;;;;;;;0.15;0.15;;;;;;;;;;1858505;76;26217;-47
2022/04/28 12:46:45;;;;;;;0.20;0.20;;;;;;;;;;1871532;76;26694;-53
2022/04/28 12:49:13;;;;;;;0.15;0.10;;;;;;;;;;1871333;76;26267;-54
2022/04/28 12:51:45;;;;;;;0.10;0.10;;;;;;;;;;1871715;76;27360;-53
2022/04/28 12:54:16;;;;;;;0.13;0.13;;;;;;;;;;1871526;76;26243;-52
2022/04/28 12:56:45;;;;;;;0.15;0.10;;;;;;;;;;1866864;76;26750;-52
2022/04/28 12:59:14;;;;;;;0.10;0.10;;;;;;;;;;1836608;77;26270;-47
2022/04/28 13:01:43;;;;;;;0.10;0.10;;;;;;;;;;1838894;78;26294;-52
2022/04/28 13:04:12;;;;;;;0.10;0.10;;;;;;;;;;1826614;78;26284;-49
2022/04/28 13:06:42;;;;;;;0.10;0.10;;;;;;;;;;1847084;76;26232;-49
2022/04/28 13:09:09;;;;;;;0.10;0.10;;;;;;;;;;1877250;76;26795;-53
2022/04/28 13:11:39;;;;;;;0.30;0.13;;;;;;;;;;1877552;76;26263;-53
2022/04/28 13:14:08;;;;;;;0.10;0.10;;;;;;;;;;1876500;76;26271;-50
2022/04/28 13:16:36;;;;;;;0.10;0.10;;;;;;;;;;1868228;76;26299;-51
2022/04/28 13:19:04;;;;;;;0.15;0.15;;;;;;;;;;1875612;76;26377;-54
2022/04/28 13:21:32;;;;;;;0.10;0.10;;;;;;;;;;1877267;76;26343;-47
2022/04/28 13:24:00;;;;;;;0.20;0.20;;;;;;;;;;1877030;76;26322;-50
2022/04/28 13:26:28;;;;;;;0.10;0.10;;;;;;;;;;1877329;76;26263;-51
2022/04/28 13:28:56;;;;;;;0.20;0.20;;;;;;;;;;1869758;76;26238;-50
2022/04/28 13:31:23;;;;;;;0.00;0.00;;;;;;;;;;1836936;77;26301;-54
2022/04/28 13:33:51;;;;;;;0.05;0.05;;;;;;;;;;1839245;77;26273;-54
2022/04/28 13:36:20;;;;;;;0.10;0.10;;;;;;;;;;1838573;78;26267;-52
2022/04/28 13:38:47;;;;;;;0.13;0.13;;;;;;;;;;1839363;77;26772;-50
2022/04/28 13:41:15;;;;;;;0.10;0.10;;;;;;;;;;1865527;76;26313;-49
2022/04/28 13:43:43;;;;;;;0.13;0.13;;;;;;;;;;1877536;76;26703;-54
2022/04/28 13:46:12;;;;;;;0.10;0.10;;;;;;;;;;1877326;76;26308;-48
2022/04/28 13:48:39;;;;;;;0.20;0.20;;;;;;;;;;1836451;76;27322;-49
2022/04/28 13:51:07;;;;;;;0.10;0.10;;;;;;;;;;1823023;76;26261;-50
2022/04/28 13:53:35;;;;;;;0.20;0.20;;;;;;;;;;1854850;76;26283;-47
2022/04/28 13:56:03;;;;;;;0.10;0.10;;;;;;;;;;1811768;79;26729;-50
2022/04/28 13:58:30;;;;;;;0.10;0.10;;;;;;;;;;1818749;77;26309;-49
2022/04/28 14:00:58;;;;;;;0.10;0.10;;;;;;;;;;1843990;78;26336;-52
2022/04/28 14:03:26;;;;;;;0.20;0.20;;;;;;;;;;1861827;76;26231;-49
2022/04/28 14:05:55;;;;;;;0.10;0.10;;;;;;;;;;1832039;76;26820;-51
2022/04/28 14:08:22;;;;;;;0.70;0.20;;;;;;;;;;1843723;78;26254;-53
2022/04/28 14:10:50;;;;;;;0.30;0.30;;;;;;;;;;1844101;78;26249;-53
2022/04/28 14:13:18;;;;;;;1.35;0.23;;;;;;;;;;1841407;77;26339;-49
2022/04/28 14:15:45;;;;;;;0.20;0.20;;;;;;;;;;1835599;76;26285;-50
2022/04/28 14:18:13;;;;;;;0.30;0.30;;;;;;;;;;1842933;78;26250;-51
2022/04/28 14:20:41;;;;;;;0.40;0.40;;;;;;;;;;1843269;77;26693;-48
2022/04/28 14:23:09;;;;;;;0.57;0.30;;;;;;;;;;1835556;77;26941;-51
2022/04/28 14:25:37;;;;;;;0.80;0.35;;;;;;;;;;1855276;76;26252;-51
2022/04/28 14:28:05;;;;;;;0.70;0.42;;;;;;;;;;1870943;76;26325;-52
2022/04/28 14:30:33;;;;;;;0.20;0.20;;;;;;;;;;1871195;76;26716;-51
2022/04/28 14:33:01;;;;;;;1.05;0.20;;;;;;;;;;1853924;76;26285;-55
2022/04/28 14:35:28;;;;;;;0.28;0.23;;;;;;;;;;1842591;77;26698;-49
2022/04/28 14:37:57;;;;;;;2.00;0.42;;;;;;;;;;1841635;76;26219;-52
2022/04/28 14:40:25;;;;;;;0.50;0.20;;;;;;;;;;1817691;77;26590;-52
2022/04/28 14:42:52;;;;;;;0.93;0.40;;;;;;;;;;1812869;78;26229;-48
2022/04/28 14:45:19;;;;;;;0.30;0.30;;;;;;;;;;1826232;76;26342;-50
2022/04/28 14:47:47;;;;;;;0.20;0.20;;;;;;;;;;1863605;76;26301;-53
2022/04/28 14:53:00;;;;;;;0.65;0.20;;;;;;;;;;1841345;77;26714;-53
2022/04/28 14:55:27;;;;;;;0.55;0.25;;;;;;;;;;1837130;77;26292;-51
2022/04/28 14:57:56;;;;;;;0.47;0.40;;;;;;;;;;1842990;76;26274;-50
2022/04/28 15:00:25;;;;;;;0.28;0.20;;;;;;;;;;1842353;77;26769;-51
2022/04/28 15:02:53;;;;;;;1.25;0.20;;;;;;;;;;1842879;77;26844;-47
2022/04/28 15:05:20;;;;;;;0.57;0.23;;;;;;;;;;1841748;77;26273;-48
2022/04/28 15:07:48;;;;;;;0.33;0.33;;;;;;;;;;1844013;78;26582;-52
2022/04/28 15:10:15;;;;;;;0.68;0.47;;;;;;;;;;1843814;77;26354;-48
2022/04/28 15:12:43;;;;;;;0.90;0.23;;;;;;;;;;1840818;76;26615;-52
2022/04/28 15:15:16;;;;;;;0.20;0.20;;;;;;;;;;1848968;76;26333;-50
2022/04/28 15:17:43;;;;;;;0.40;0.40;;;;;;;;;;1870261;76;26319;-51
2022/04/28 15:20:11;;;;;;;0.20;0.20;;;;;;;;;;1870916;76;26897;-48
2022/04/28 15:22:39;;;;;;;0.50;0.30;;;;;;;;;;1871519;76;26268;-52
2022/04/28 15:25:09;;;;;;;0.10;0.10;;;;;;;;;;1871225;76;26346;-51
2022/04/28 15:27:37;;;;;;;0.23;0.23;;;;;;;;;;1871958;76;26271;-49
2022/04/28 15:30:07;;;;;;;0.20;0.20;;;;;;;;;;1855759;76;26280;-53